Time;durP1;ratioP1;P1;durP2;ratioP2;P2;SDS_P1;SDS_P2;PMS_P1;PMS_P2;Temp;Humidity;BMP_temperature;BMP_pressure;BME280_temperature;BME280_humidity;BME280_pressure;Samples;Min_cycle;Max_cycle;Signal;HPM_P1;HPM_P2
2022/03/29 00:00:18;;;;;;;48.05;26.92;;;6.20;99.90;;;;;;5032174;28;20042;-77
2022/03/29 00:02:44;;;;;;;47.03;27.40;;;6.20;99.90;;;;;;5031580;28;20037;-78
2022/03/29 00:05:10;;;;;;;46.20;26.90;;;6.20;99.90;;;;;;5031260;28;20155;-77
2022/03/29 00:07:35;;;;;;;45.22;27.05;;;6.30;99.90;;;;;;5027001;28;20053;-77
2022/03/29 00:10:06;;;;;;;46.33;26.92;;;6.30;99.90;;;;;;5029473;28;20509;-77
2022/03/29 00:12:34;;;;;;;47.50;27.17;;;6.30;99.90;;;;;;5034004;28;20033;-77
2022/03/29 00:15:00;;;;;;;44.67;26.40;;;6.30;99.90;;;;;;5028058;28;20048;-78
2022/03/29 00:17:26;;;;;;;46.20;26.63;;;6.30;99.90;;;;;;5031671;28;20029;-78
2022/03/29 00:19:51;;;;;;;47.20;27.85;;;6.30;99.90;;;;;;5029409;28;20446;-78
2022/03/29 00:22:17;;;;;;;48.95;29.10;;;6.40;99.90;;;;;;5031400;28;20160;-77
2022/03/29 00:24:43;;;;;;;47.15;28.23;;;6.40;99.90;;;;;;5030263;28;20083;-77
2022/03/29 00:27:08;;;;;;;56.25;30.38;;;6.40;99.90;;;;;;5029716;28;20038;-77
2022/03/29 00:29:35;;;;;;;55.78;31.33;;;6.40;99.90;;;;;;5029313;28;20041;-77
2022/03/29 00:32:01;;;;;;;50.58;29.58;;;6.40;99.90;;;;;;5032933;28;20412;-77
2022/03/29 00:34:27;;;;;;;52.10;30.90;;;6.40;99.90;;;;;;5030667;28;20033;-77
2022/03/29 00:36:53;;;;;;;51.97;30.23;;;6.40;99.90;;;;;;5029779;28;20060;-78
2022/03/29 00:39:19;;;;;;;56.60;32.28;;;6.40;99.90;;;;;;5017773;28;20138;-78
2022/03/29 00:41:44;;;;;;;53.60;31.50;;;6.40;99.90;;;;;;5014961;28;20118;-77
2022/03/29 00:44:10;;;;;;;48.47;28.73;;;6.40;99.90;;;;;;5029037;28;20049;-78
2022/03/29 00:46:36;;;;;;;50.72;29.60;;;6.40;99.90;;;;;;5030631;28;20048;-77
2022/03/29 00:49:01;;;;;;;50.20;28.25;;;6.40;99.90;;;;;;5030946;28;20044;-77
2022/03/29 00:51:27;;;;;;;46.67;27.52;;;6.30;99.90;;;;;;5029323;28;20045;-78
2022/03/29 00:53:54;;;;;;;48.42;29.33;;;6.30;99.90;;;;;;5025877;28;20033;-78
2022/03/29 00:56:20;;;;;;;50.70;28.40;;;6.30;99.90;;;;;;5012594;28;20166;-78
2022/03/29 00:58:46;;;;;;;53.75;30.15;;;6.30;99.90;;;;;;5027826;28;20487;-77
2022/03/29 01:01:14;;;;;;;52.33;31.40;;;6.30;99.90;;;;;;5031218;28;20103;-77
2022/03/29 01:03:43;;;;;;;57.10;32.17;;;6.40;99.90;;;;;;5025420;28;20033;-78
2022/03/29 01:06:08;;;;;;;58.20;31.83;;;6.30;99.90;;;;;;5027169;28;20109;-77
2022/03/29 01:08:35;;;;;;;56.72;30.70;;;6.30;99.90;;;;;;5037688;28;20571;-78
2022/03/29 01:11:02;;;;;;;53.58;31.38;;;6.30;99.90;;;;;;5027878;28;20554;-77
2022/03/29 01:13:28;;;;;;;55.13;31.17;;;6.30;99.90;;;;;;5029079;28;20048;-77
2022/03/29 01:15:55;;;;;;;55.00;31.95;;;6.30;99.90;;;;;;5028469;28;20033;-78
2022/03/29 01:18:23;;;;;;;60.72;33.17;;;6.30;99.90;;;;;;5029551;28;20044;-78
2022/03/29 01:20:54;;;;;;;50.92;30.63;;;6.30;99.90;;;;;;5034027;28;20048;-77
2022/03/29 01:23:20;;;;;;;57.08;30.70;;;6.30;99.90;;;;;;5030035;28;20042;-77
2022/03/29 01:25:50;;;;;;;50.30;28.35;;;6.30;99.90;;;;;;5029221;28;20649;-78
2022/03/29 01:28:16;;;;;;;52.05;28.15;;;6.30;99.90;;;;;;5028022;28;20037;-77
2022/03/29 01:30:43;;;;;;;48.80;27.20;;;6.20;99.90;;;;;;5027099;28;20127;-77
2022/03/29 01:33:09;;;;;;;46.08;25.80;;;6.20;99.90;;;;;;5027992;28;20548;-77
2022/03/29 01:35:35;;;;;;;48.17;25.92;;;6.20;99.90;;;;;;5036405;28;20045;-77
2022/03/29 01:38:01;;;;;;;48.75;26.23;;;6.20;99.90;;;;;;5027006;28;20095;-78
2022/03/29 01:40:27;;;;;;;44.58;24.42;;;6.20;99.90;;;;;;5026779;28;20054;-77
2022/03/29 01:43:01;;;;;;;41.75;24.48;;;6.20;99.90;;;;;;5029318;28;20516;-77
2022/03/29 01:45:29;;;;;;;43.03;24.08;;;6.20;99.90;;;;;;5025925;28;20037;-77
2022/03/29 01:47:55;;;;;;;47.85;23.35;;;6.20;99.90;;;;;;5029649;28;20465;-77
2022/03/29 01:50:22;;;;;;;43.72;23.90;;;6.20;99.90;;;;;;5037984;28;20461;-77
2022/03/29 01:52:48;;;;;;;44.45;23.90;;;6.20;99.90;;;;;;5031932;28;20442;-77
2022/03/29 01:55:18;;;;;;;41.22;23.23;;;6.20;99.90;;;;;;5017142;28;20038;-78
2022/03/29 01:57:45;;;;;;;42.05;23.38;;;6.20;99.90;;;;;;5033090;28;20560;-77
2022/03/29 02:00:31;;;;;;;39.67;22.50;;;6.20;99.90;;;;;;5035768;28;20046;-78
2022/03/29 02:02:57;;;;;;;42.13;22.50;;;6.10;99.90;;;;;;5031325;28;20045;-77
2022/03/29 02:05:24;;;;;;;38.47;21.20;;;6.10;99.90;;;;;;5032535;28;20377;-77
2022/03/29 02:07:52;;;;;;;39.72;23.33;;;6.10;99.90;;;;;;5034069;28;20033;-77
2022/03/29 02:10:20;;;;;;;43.40;22.92;;;6.10;99.90;;;;;;5032309;28;20033;-77
2022/03/29 02:12:47;;;;;;;39.47;21.42;;;6.10;99.90;;;;;;5029375;28;20033;-77
2022/03/29 02:15:14;;;;;;;39.75;21.50;;;6.10;99.90;;;;;;5031100;28;20127;-77
2022/03/29 02:17:41;;;;;;;39.78;20.73;;;6.10;99.90;;;;;;5030347;28;20080;-78
2022/03/29 02:20:07;;;;;;;38.63;21.23;;;6.10;99.90;;;;;;5031070;28;20077;-78
2022/03/29 02:22:34;;;;;;;37.58;20.58;;;6.10;99.90;;;;;;5033430;28;20041;-78
2022/03/29 02:24:59;;;;;;;41.20;22.10;;;6.10;99.90;;;;;;5030604;28;20450;-77
2022/03/29 02:27:25;;;;;;;35.45;21.38;;;6.10;99.90;;;;;;5035951;28;20037;-77
2022/03/29 02:29:51;;;;;;;38.70;22.30;;;6.10;99.90;;;;;;5032869;28;20041;-77
2022/03/29 02:32:17;;;;;;;36.80;21.27;;;6.10;99.90;;;;;;5032842;28;20033;-77
2022/03/29 02:34:45;;;;;;;41.88;22.60;;;6.10;99.90;;;;;;5032702;28;20541;-77
2022/03/29 02:37:11;;;;;;;39.47;21.63;;;6.10;99.90;;;;;;5031323;28;20041;-77
2022/03/29 02:39:38;;;;;;;36.78;22.50;;;6.10;99.90;;;;;;5031432;28;20071;-77
2022/03/29 02:42:04;;;;;;;39.15;21.88;;;6.10;99.90;;;;;;5031443;28;20453;-77
2022/03/29 02:44:30;;;;;;;41.72;22.67;;;6.10;99.90;;;;;;5031298;28;20045;-77
2022/03/29 02:46:56;;;;;;;40.13;22.58;;;6.10;99.90;;;;;;5032166;28;20386;-77
2022/03/29 02:49:23;;;;;;;38.58;22.17;;;6.10;99.90;;;;;;5032278;28;20506;-77
2022/03/29 02:51:49;;;;;;;43.38;22.80;;;6.10;99.90;;;;;;5037213;28;20033;-77
2022/03/29 02:54:15;;;;;;;40.83;22.55;;;6.20;99.90;;;;;;5030202;28;20533;-77
2022/03/29 02:56:41;;;;;;;40.58;23.58;;;6.10;99.90;;;;;;5033339;28;20439;-78
2022/03/29 02:59:08;;;;;;;44.28;22.55;;;6.10;99.90;;;;;;5031294;28;20368;-77
2022/03/29 03:01:34;;;;;;;45.80;22.60;;;6.20;99.90;;;;;;5013082;28;20110;-78
2022/03/29 03:03:59;;;;;;;43.53;23.52;;;6.10;99.90;;;;;;5030267;28;20037;-77
2022/03/29 03:06:25;;;;;;;44.05;23.65;;;6.10;99.90;;;;;;5030951;28;20091;-77
2022/03/29 03:08:51;;;;;;;48.28;25.40;;;6.10;99.90;;;;;;5034272;28;20056;-78
2022/03/29 03:11:16;;;;;;;47.63;23.88;;;6.10;99.90;;;;;;5030352;28;20044;-77
2022/03/29 03:13:42;;;;;;;50.60;25.65;;;6.10;99.90;;;;;;5035045;28;20034;-78
2022/03/29 03:16:08;;;;;;;47.15;24.67;;;6.10;99.90;;;;;;5033010;28;20038;-77
2022/03/29 03:18:34;;;;;;;51.47;24.52;;;6.10;99.90;;;;;;5033827;28;20033;-77
2022/03/29 03:21:00;;;;;;;57.90;25.45;;;6.10;99.90;;;;;;5032493;28;20040;-78
2022/03/29 03:23:26;;;;;;;45.88;23.65;;;6.10;99.90;;;;;;5016016;28;20099;-77
2022/03/29 03:25:51;;;;;;;48.15;25.17;;;6.10;99.90;;;;;;5028999;28;20482;-77
2022/03/29 03:28:18;;;;;;;48.25;24.27;;;6.10;99.90;;;;;;5031263;28;20053;-77
2022/03/29 03:30:43;;;;;;;48.20;25.13;;;6.10;99.90;;;;;;5027605;28;20417;-77
2022/03/29 03:33:09;;;;;;;45.55;23.92;;;6.10;99.90;;;;;;5032841;28;20106;-77
2022/03/29 03:35:35;;;;;;;54.30;23.80;;;6.10;99.90;;;;;;5029429;28;20033;-77
2022/03/29 03:38:01;;;;;;;44.97;25.23;;;6.10;99.90;;;;;;5031962;28;20044;-78
2022/03/29 03:40:26;;;;;;;46.53;23.65;;;6.10;99.90;;;;;;5027025;28;20089;-77
2022/03/29 03:42:52;;;;;;;46.63;22.48;;;6.10;99.90;;;;;;5030524;28;20037;-77
2022/03/29 03:45:18;;;;;;;43.50;22.65;;;6.10;99.90;;;;;;5029742;28;20051;-77
2022/03/29 03:47:46;;;;;;;46.25;23.67;;;6.10;99.90;;;;;;5023594;28;20051;-78
2022/03/29 03:50:12;;;;;;;46.35;24.10;;;6.10;99.90;;;;;;5027521;28;20120;-77
2022/03/29 03:52:37;;;;;;;44.70;23.42;;;6.10;99.90;;;;;;5031215;28;20128;-78
2022/03/29 03:55:04;;;;;;;49.58;23.90;;;6.10;99.90;;;;;;5026896;28;20034;-78
2022/03/29 03:57:30;;;;;;;42.85;22.20;;;6.10;99.90;;;;;;5018009;28;20037;-78
2022/03/29 03:59:56;;;;;;;44.35;22.02;;;6.20;99.90;;;;;;5030864;28;20029;-78
2022/03/29 04:02:23;;;;;;;45.88;22.65;;;6.20;99.90;;;;;;5029841;28;20483;-78
2022/03/29 04:04:49;;;;;;;42.15;22.55;;;6.20;99.90;;;;;;5031109;28;20045;-78
2022/03/29 04:07:15;;;;;;;45.38;21.50;;;6.20;99.90;;;;;;5026754;28;20564;-78
2022/03/29 04:09:41;;;;;;;43.83;22.80;;;6.20;99.90;;;;;;5032393;28;20033;-78
2022/03/29 04:12:08;;;;;;;44.10;22.45;;;6.20;99.90;;;;;;5013328;28;20049;-78
2022/03/29 04:14:33;;;;;;;40.83;21.85;;;6.20;99.90;;;;;;5031366;28;20125;-78
2022/03/29 04:17:00;;;;;;;35.35;20.25;;;6.20;99.90;;;;;;5029318;28;20124;-78
2022/03/29 04:19:25;;;;;;;41.50;21.63;;;6.20;99.90;;;;;;5030751;28;20041;-78
2022/03/29 04:21:51;;;;;;;42.08;22.52;;;6.20;99.90;;;;;;5030393;28;20095;-78
2022/03/29 04:24:17;;;;;;;46.95;22.55;;;6.20;99.90;;;;;;5032823;28;20040;-78
2022/03/29 04:26:42;;;;;;;39.70;21.13;;;6.20;99.90;;;;;;5027032;28;20430;-78
2022/03/29 04:29:08;;;;;;;38.30;22.20;;;6.20;99.90;;;;;;5030280;28;20124;-77
2022/03/29 04:31:34;;;;;;;40.30;21.27;;;6.20;99.90;;;;;;5028742;28;20120;-78
2022/03/29 04:34:00;;;;;;;40.78;21.75;;;6.20;99.90;;;;;;5032372;28;20041;-78
2022/03/29 04:36:27;;;;;;;39.33;21.83;;;6.20;99.90;;;;;;5029216;28;20112;-78
2022/03/29 04:38:53;;;;;;;39.67;21.05;;;6.20;99.90;;;;;;5028706;28;20450;-78
2022/03/29 04:41:19;;;;;;;38.05;21.67;;;6.20;99.90;;;;;;5029120;28;20050;-78
2022/03/29 04:43:45;;;;;;;40.33;20.42;;;6.20;99.90;;;;;;5030937;28;20033;-78
2022/03/29 04:46:11;;;;;;;39.60;20.55;;;6.20;99.90;;;;;;5028695;28;20044;-78
2022/03/29 04:48:36;;;;;;;36.70;21.00;;;6.20;99.90;;;;;;5032493;28;20124;-78
2022/03/29 04:51:02;;;;;;;39.97;20.05;;;6.20;99.90;;;;;;5030557;28;20042;-78
2022/03/29 04:53:28;;;;;;;31.55;18.48;;;6.20;99.90;;;;;;5022375;28;20029;-78
2022/03/29 04:55:54;;;;;;;35.45;20.02;;;6.20;99.90;;;;;;5028514;28;20407;-78
2022/03/29 04:58:21;;;;;;;35.10;19.42;;;6.10;99.90;;;;;;5027453;28;20069;-78
2022/03/29 05:00:47;;;;;;;36.47;18.58;;;6.20;99.90;;;;;;5031465;28;20037;-78
2022/03/29 05:03:12;;;;;;;33.92;19.30;;;6.20;99.90;;;;;;5028623;28;20064;-78
2022/03/29 05:05:38;;;;;;;36.00;20.92;;;6.10;99.90;;;;;;5028258;28;20072;-78
2022/03/29 05:08:04;;;;;;;36.03;19.45;;;6.10;99.90;;;;;;5031526;28;20109;-78
2022/03/29 05:10:30;;;;;;;34.75;20.20;;;6.20;99.90;;;;;;5030709;28;20491;-77
2022/03/29 05:12:56;;;;;;;36.08;18.98;;;6.20;99.90;;;;;;5027183;28;20044;-78
2022/03/29 05:15:23;;;;;;;36.63;18.50;;;6.20;99.90;;;;;;5030351;28;20124;-79
2022/03/29 05:17:49;;;;;;;35.45;18.60;;;6.20;99.90;;;;;;5029514;28;20052;-78
2022/03/29 05:20:16;;;;;;;37.67;19.27;;;6.30;99.90;;;;;;5028593;28;20064;-78
2022/03/29 05:22:52;;;;;;;37.78;20.25;;;6.20;99.90;;;;;;5030087;28;20048;-78
2022/03/29 05:25:21;;;;;;;34.42;18.83;;;6.20;99.90;;;;;;5033144;28;20139;-78
2022/03/29 05:27:47;;;;;;;36.42;19.67;;;6.20;99.90;;;;;;5031184;28;20155;-78
2022/03/29 05:30:14;;;;;;;33.38;18.58;;;6.20;99.90;;;;;;5033254;28;20054;-78
2022/03/29 05:32:41;;;;;;;38.33;20.05;;;6.20;99.90;;;;;;5029601;28;20399;-78
2022/03/29 05:35:09;;;;;;;32.85;20.17;;;6.20;99.90;;;;;;5015955;28;20649;-78
2022/03/29 05:37:35;;;;;;;35.88;19.50;;;6.20;99.90;;;;;;5030829;28;20025;-78
2022/03/29 05:40:02;;;;;;;35.00;20.27;;;6.20;99.90;;;;;;5031083;28;20046;-78
2022/03/29 05:42:28;;;;;;;36.55;19.83;;;6.40;99.90;;;;;;5027762;28;20699;-78
2022/03/29 05:44:54;;;;;;;35.05;19.55;;;6.20;99.90;;;;;;5033532;28;20041;-78
2022/03/29 05:50:05;;;;;;;33.10;19.48;;;6.20;99.90;;;;;;5028497;28;20038;-78
2022/03/29 05:52:30;;;;;;;37.10;20.65;;;6.20;99.90;;;;;;5046615;28;20112;-77
2022/03/29 05:54:57;;;;;;;38.35;19.15;;;6.20;99.90;;;;;;5032612;28;20112;-77
2022/03/29 05:57:23;;;;;;;34.55;20.00;;;6.20;99.90;;;;;;5027948;28;20046;-78
2022/03/29 05:59:49;;;;;;;35.58;20.08;;;6.20;99.90;;;;;;5033314;28;20028;-78
2022/03/29 06:02:14;;;;;;;36.47;20.30;;;6.20;99.90;;;;;;5029695;28;20479;-78
2022/03/29 06:04:40;;;;;;;41.05;20.30;;;6.20;99.90;;;;;;5030570;28;20071;-78
2022/03/29 06:07:07;;;;;;;36.83;22.30;;;6.30;99.90;;;;;;5032397;28;20449;-77
2022/03/29 06:09:34;;;;;;;37.70;20.65;;;6.30;99.90;;;;;;5031711;28;20443;-78
2022/03/29 06:12:01;;;;;;;40.75;20.00;;;6.30;99.90;;;;;;5029973;28;20037;-78
2022/03/29 06:14:27;;;;;;;40.03;20.25;;;6.30;99.90;;;;;;5031896;28;20045;-77
2022/03/29 06:16:55;;;;;;;40.85;22.38;;;6.30;99.90;;;;;;5037235;28;20102;-78
2022/03/29 06:19:21;;;;;;;43.35;21.05;;;6.30;99.90;;;;;;5033375;28;20538;-78
2022/03/29 06:21:47;;;;;;;43.05;20.35;;;6.30;99.90;;;;;;5031247;28;20395;-78
2022/03/29 06:24:13;;;;;;;39.17;21.33;;;6.30;99.90;;;;;;5031629;28;20041;-78
2022/03/29 06:26:39;;;;;;;44.17;22.17;;;6.40;99.90;;;;;;5033589;28;20052;-78
2022/03/29 06:29:06;;;;;;;43.30;20.42;;;6.40;99.90;;;;;;5031281;28;20049;-78
2022/03/29 06:31:32;;;;;;;35.28;19.33;;;6.40;99.90;;;;;;5032552;28;20038;-78
2022/03/29 06:33:58;;;;;;;51.45;23.20;;;6.50;99.90;;;;;;5031003;28;20099;-78
2022/03/29 06:36:25;;;;;;;42.95;23.05;;;6.50;99.90;;;;;;5031628;28;20025;-78
2022/03/29 06:38:51;;;;;;;43.05;22.40;;;6.50;99.90;;;;;;5031096;28;20180;-78
2022/03/29 06:41:17;;;;;;;41.00;22.55;;;6.50;99.90;;;;;;5032190;28;20514;-78
2022/03/29 06:43:43;;;;;;;44.13;24.45;;;6.50;99.90;;;;;;5029306;28;20056;-77
2022/03/29 06:46:09;;;;;;;46.55;25.92;;;6.50;99.90;;;;;;5033479;28;20037;-78
2022/03/29 06:48:44;;;;;;;52.47;25.95;;;6.70;99.90;;;;;;5030759;28;20068;-78
2022/03/29 06:51:15;;;;;;;47.95;25.63;;;6.70;99.90;;;;;;5029942;28;20049;-78
2022/03/29 06:53:42;;;;;;;48.42;25.00;;;6.70;99.90;;;;;;5030598;28;20044;-78
2022/03/29 06:56:08;;;;;;;48.13;26.08;;;6.70;99.90;;;;;;5031188;28;20029;-77
2022/03/29 06:58:37;;;;;;;48.10;25.55;;;6.70;99.90;;;;;;5029901;28;20108;-78
2022/03/29 07:01:04;;;;;;;46.30;25.67;;;6.70;99.90;;;;;;5036285;28;20045;-78
2022/03/29 07:03:34;;;;;;;50.00;27.02;;;6.80;99.90;;;;;;5044105;28;20442;-78
2022/03/29 07:06:00;;;;;;;43.42;25.40;;;6.80;99.90;;;;;;5031846;28;20047;-78
2022/03/29 07:08:26;;;;;;;50.95;26.20;;;6.90;99.90;;;;;;5030844;28;20041;-78
2022/03/29 07:13:38;;;;;;;45.35;24.63;;;7.00;99.90;;;;;;5038547;28;20097;-78
2022/03/29 07:16:04;;;;;;;45.22;24.45;;;7.00;99.90;;;;;;5034932;28;20041;-78
2022/03/29 07:18:30;;;;;;;53.00;24.73;;;7.10;99.90;;;;;;5032511;28;20173;-78
2022/03/29 07:20:56;;;;;;;48.05;24.00;;;7.20;99.90;;;;;;5034510;28;20116;-78
2022/03/29 07:23:21;;;;;;;46.28;25.27;;;7.20;99.90;;;;;;5029244;28;20033;-78
2022/03/29 07:25:47;;;;;;;46.42;23.63;;;7.30;99.90;;;;;;5031014;28;20491;-78
2022/03/29 07:28:13;;;;;;;50.88;26.58;;;7.30;99.90;;;;;;5012307;28;20103;-78
2022/03/29 07:30:43;;;;;;;48.00;23.85;;;7.30;99.90;;;;;;5024157;28;20139;-78
2022/03/29 07:33:11;;;;;;;47.85;25.58;;;7.40;99.90;;;;;;5036218;28;20045;-78
2022/03/29 07:35:37;;;;;;;44.03;24.38;;;7.40;99.90;;;;;;5044531;28;20083;-78
2022/03/29 07:38:07;;;;;;;45.67;24.83;;;7.50;99.90;;;;;;5028916;28;20040;-78
2022/03/29 07:40:34;;;;;;;47.95;25.02;;;7.60;99.90;;;;;;5035351;28;20484;-78
2022/03/29 07:43:00;;;;;;;45.75;25.92;;;7.60;99.90;;;;;;5035199;28;20033;-78
2022/03/29 07:45:27;;;;;;;45.35;25.08;;;7.70;99.90;;;;;;5033210;28;20132;-78
2022/03/29 07:47:56;;;;;;;48.33;25.83;;;7.80;99.90;;;;;;5041268;28;20041;-78
2022/03/29 07:50:23;;;;;;;46.55;24.42;;;7.90;99.90;;;;;;5036325;28;20204;-78
2022/03/29 07:52:50;;;;;;;48.90;24.65;;;8.10;99.90;;;;;;5026645;28;20038;-78
2022/03/29 07:55:16;;;;;;;43.95;24.50;;;8.20;99.90;;;;;;5034772;28;20059;-78
2022/03/29 07:57:43;;;;;;;50.42;25.38;;;8.30;99.90;;;;;;5031257;28;20041;-78
2022/03/29 08:02:56;;;;;;;43.60;25.63;;;8.40;99.90;;;;;;5024165;28;20041;-78
2022/03/29 08:05:22;;;;;;;49.00;25.17;;;8.50;99.90;;;;;;5035002;28;20525;-78
2022/03/29 08:07:48;;;;;;;44.88;23.88;;;8.40;99.90;;;;;;5042807;28;20045;-78
2022/03/29 08:10:14;;;;;;;47.42;23.50;;;8.40;99.90;;;;;;5034629;28;20045;-78
2022/03/29 08:12:43;;;;;;;46.63;25.58;;;8.50;99.90;;;;;;5038114;28;20041;-78
2022/03/29 08:15:10;;;;;;;52.65;24.25;;;8.60;99.90;;;;;;5032894;28;20069;-78
2022/03/29 08:17:38;;;;;;;44.60;24.42;;;8.60;99.90;;;;;;5033223;28;20112;-79
2022/03/29 08:20:05;;;;;;;43.92;23.67;;;8.70;99.90;;;;;;5031744;28;20043;-78
2022/03/29 08:22:34;;;;;;;45.05;23.75;;;8.70;99.90;;;;;;5017735;28;20755;-77
2022/03/29 08:25:02;;;;;;;47.30;25.08;;;8.80;99.90;;;;;;5021013;28;20044;-78
2022/03/29 08:27:28;;;;;;;41.72;23.40;;;8.90;99.90;;;;;;5022115;28;20124;-77
2022/03/29 08:29:54;;;;;;;47.00;24.30;;;9.00;99.90;;;;;;5021208;28;20139;-78
2022/03/29 08:32:20;;;;;;;42.92;23.10;;;9.10;99.90;;;;;;5022767;28;20045;-77
2022/03/29 08:34:46;;;;;;;42.15;23.08;;;9.20;99.90;;;;;;5021435;28;20418;-78
2022/03/29 08:37:12;;;;;;;41.97;22.83;;;9.30;99.90;;;;;;5023979;28;20042;-78
2022/03/29 08:39:37;;;;;;;42.90;22.85;;;9.30;99.90;;;;;;5019431;28;20140;-78
2022/03/29 08:42:13;;;;;;;43.10;23.25;;;9.40;99.90;;;;;;5021183;28;20045;-78
2022/03/29 08:44:40;;;;;;;42.10;24.20;;;9.50;99.90;;;;;;5021238;28;20338;-78
2022/03/29 08:47:08;;;;;;;40.08;21.98;;;9.50;99.90;;;;;;5022984;28;20045;-78
2022/03/29 08:49:35;;;;;;;42.05;21.33;;;9.40;99.90;;;;;;5023144;28;20115;-78
2022/03/29 08:52:01;;;;;;;44.25;22.25;;;9.40;99.90;;;;;;5023047;28;20157;-78
2022/03/29 08:54:27;;;;;;;41.30;22.98;;;9.30;99.90;;;;;;5023054;28;20116;-78
2022/03/29 08:56:53;;;;;;;42.60;22.88;;;9.40;99.90;;;;;;5023750;28;20045;-78
2022/03/29 08:59:20;;;;;;;47.00;23.52;;;9.50;99.90;;;;;;5021346;28;20045;-78
2022/03/29 09:01:47;;;;;;;43.17;23.38;;;9.60;99.90;;;;;;5022578;28;20041;-78
2022/03/29 09:04:15;;;;;;;39.17;22.38;;;9.60;99.90;;;;;;5022772;28;20034;-78
2022/03/29 09:06:50;;;;;;;45.85;23.55;;;9.60;99.90;;;;;;5022010;28;20064;-78
2022/03/29 09:09:44;;;;;;;45.63;22.67;;;9.60;99.90;;;;;;5017953;28;20048;-78
2022/03/29 09:12:17;;;;;;;48.38;23.17;;;9.60;99.90;;;;;;5020013;28;20049;-78
2022/03/29 09:14:51;;;;;;;40.88;22.83;;;9.60;99.90;;;;;;5021165;28;20555;-78
2022/03/29 09:17:32;;;;;;;42.35;23.52;;;9.60;99.90;;;;;;5022212;28;20053;-78
2022/03/29 09:19:59;;;;;;;42.63;22.90;;;9.60;99.90;;;;;;5021197;28;20124;-78
2022/03/29 09:22:35;;;;;;;44.05;23.45;;;9.70;99.90;;;;;;5020915;28;20038;-76
2022/03/29 09:25:01;;;;;;;46.83;24.80;;;9.80;99.90;;;;;;5021594;28;20069;-78
2022/03/29 09:27:27;;;;;;;45.08;22.67;;;9.80;99.90;;;;;;5023401;28;20073;-78
2022/03/29 09:30:12;;;;;;;42.55;22.77;;;10.00;99.90;;;;;;5022300;28;20423;-77
2022/03/29 09:33:10;;;;;;;44.08;24.20;;;10.10;99.90;;;;;;5021732;28;20141;-77
2022/03/29 09:35:57;;;;;;;41.08;23.00;;;10.40;99.90;;;;;;5022142;28;20041;-78
2022/03/29 09:38:30;;;;;;;43.72;22.33;;;10.50;99.90;;;;;;5023156;28;20046;-78
2022/03/29 09:40:57;;;;;;;47.42;22.35;;;10.50;99.90;;;;;;5021565;28;20573;-78
2022/03/29 09:43:25;;;;;;;39.25;22.55;;;10.50;99.90;;;;;;5023712;28;20156;-77
2022/03/29 09:45:55;;;;;;;40.00;21.15;;;10.50;99.90;;;;;;5027739;28;20049;-78
2022/03/29 09:48:24;;;;;;;38.88;20.98;;;10.40;99.90;;;;;;5008850;28;20051;-78
2022/03/29 09:50:55;;;;;;;41.47;22.70;;;10.40;99.90;;;;;;5012031;28;20099;-79
2022/03/29 09:53:51;;;;;;;37.85;21.48;;;10.30;99.90;;;;;;5018516;28;20041;-78
2022/03/29 09:56:24;;;;;;;39.45;22.33;;;10.50;99.90;;;;;;5018487;28;20021;-78
2022/03/29 09:59:03;;;;;;;40.97;22.83;;;10.70;99.90;;;;;;5014005;28;20529;-78
2022/03/29 10:01:29;;;;;;;33.72;20.40;;;10.90;99.90;;;;;;5018493;28;20422;-78
2022/03/29 10:03:56;;;;;;;37.13;22.40;;;11.00;99.90;;;;;;5018151;28;20053;-78
2022/03/29 10:06:23;;;;;;;39.40;21.88;;;11.20;99.90;;;;;;5018956;28;20048;-78
2022/03/29 10:11:45;;;;;;;34.97;21.33;;;11.30;99.90;;;;;;5021883;28;20053;-78
2022/03/29 10:14:12;;;;;;;40.83;21.60;;;11.20;99.90;;;;;;5021674;28;20439;-78
2022/03/29 10:16:39;;;;;;;38.30;21.35;;;11.10;99.90;;;;;;5048976;28;20495;-78
2022/03/29 10:19:06;;;;;;;39.40;22.98;;;11.00;99.90;;;;;;5021520;28;20120;-79
2022/03/29 10:21:32;;;;;;;40.17;22.55;;;10.80;99.90;;;;;;5023459;28;20560;-78
2022/03/29 10:24:00;;;;;;;43.90;21.60;;;10.80;99.90;;;;;;5017134;28;20569;-78
2022/03/29 10:26:27;;;;;;;37.47;21.95;;;10.80;99.90;;;;;;5020295;28;20502;-78
2022/03/29 10:28:53;;;;;;;34.25;19.45;;;10.80;99.90;;;;;;5026719;28;20075;-79
2022/03/29 10:31:33;;;;;;;33.28;18.38;;;10.70;99.90;;;;;;5037445;28;20064;-78
2022/03/29 10:34:19;;;;;;;30.10;17.73;;;10.80;99.90;;;;;;5031774;28;20029;-79
2022/03/29 10:37:07;;;;;;;32.88;19.60;;;11.00;99.90;;;;;;5033515;28;20047;-79
2022/03/29 10:39:54;;;;;;;32.92;17.60;;;11.10;99.90;;;;;;5020011;28;20184;-79
2022/03/29 10:42:26;;;;;;;35.03;19.27;;;11.30;99.90;;;;;;5029779;28;20084;-78
2022/03/29 10:45:06;;;;;;;34.33;18.65;;;11.20;99.90;;;;;;5040065;28;21735;-80
2022/03/29 10:47:33;;;;;;;31.33;18.65;;;11.20;99.90;;;;;;5041764;28;20041;-78
2022/03/29 10:50:00;;;;;;;33.35;18.42;;;11.30;99.90;;;;;;5044639;28;20502;-79
2022/03/29 10:52:26;;;;;;;37.20;18.92;;;11.40;99.90;;;;;;5032267;28;20103;-78
2022/03/29 10:55:12;;;;;;;34.30;18.88;;;11.50;99.90;;;;;;5024810;28;20420;-78
2022/03/29 10:57:37;;;;;;;35.35;18.27;;;11.50;99.90;;;;;;5018968;28;20384;-78
2022/03/29 11:00:17;;;;;;;34.22;18.10;;;11.60;99.90;;;;;;5038022;28;20052;-79
2022/03/29 11:03:09;;;;;;;36.22;18.73;;;11.70;99.90;;;;;;5032639;28;20124;-78
2022/03/29 11:06:04;;;;;;;39.28;18.42;;;12.10;99.90;;;;;;5034390;28;20071;-78
2022/03/29 11:08:30;;;;;;;28.15;17.17;;;12.20;99.90;;;;;;5039579;28;20056;-78
2022/03/29 11:10:59;;;;;;;31.02;18.25;;;12.20;99.90;;;;;;5038835;28;20037;-78
2022/03/29 11:13:37;;;;;;;28.88;17.67;;;12.00;99.90;;;;;;5032396;28;20034;-78
2022/03/29 11:16:31;;;;;;;33.35;18.85;;;11.80;99.90;;;;;;5033695;28;20107;-78
2022/03/29 11:18:58;;;;;;;32.28;17.98;;;11.90;99.90;;;;;;5018251;28;20100;-78
2022/03/29 11:21:36;;;;;;;32.53;18.05;;;11.80;99.90;;;;;;5032374;28;20072;-78
2022/03/29 11:24:04;;;;;;;44.90;18.42;;;11.80;99.90;;;;;;5035141;28;20368;-79
2022/03/29 11:26:30;;;;;;;34.15;19.27;;;11.90;99.90;;;;;;5041784;28;20114;-78
2022/03/29 11:29:00;;;;;;;50.22;18.27;;;12.10;99.90;;;;;;5030618;28;20492;-78
2022/03/29 11:31:35;;;;;;;30.02;17.95;;;12.20;99.90;;;;;;5039364;28;20073;-78
2022/03/29 11:34:01;;;;;;;58.42;19.73;;;12.20;99.90;;;;;;5028916;28;20037;-78
2022/03/29 11:36:27;;;;;;;46.70;19.60;;;12.20;99.90;;;;;;5044876;28;20033;-78
2022/03/29 11:38:53;;;;;;;34.95;18.50;;;12.30;99.90;;;;;;5017984;28;20029;-78
2022/03/29 11:41:30;;;;;;;28.50;17.50;;;12.10;99.90;;;;;;5038301;28;20056;-78
2022/03/29 11:43:59;;;;;;;65.80;20.38;;;12.00;99.90;;;;;;5031986;28;20045;-78
2022/03/29 11:46:42;;;;;;;77.07;20.05;;;12.00;99.90;;;;;;5046407;28;20102;-79
2022/03/29 11:49:08;;;;;;;30.05;17.67;;;12.40;99.90;;;;;;5041465;28;20490;-79
2022/03/29 11:51:34;;;;;;;31.60;17.95;;;13.00;99.90;;;;;;5045604;28;20037;-78
2022/03/29 11:54:00;;;;;;;30.33;16.60;;;13.50;99.90;;;;;;5032367;28;20069;-78
2022/03/29 11:56:26;;;;;;;96.80;22.70;;;13.70;99.20;;;;;;5035893;28;20116;-78
2022/03/29 11:58:54;;;;;;;43.80;18.05;;;13.70;99.00;;;;;;5034734;28;20081;-78
2022/03/29 12:01:24;;;;;;;40.50;18.52;;;13.60;98.80;;;;;;5044099;28;20037;-78
2022/03/29 12:03:54;;;;;;;27.27;16.08;;;13.30;98.60;;;;;;5034845;28;20045;-78
2022/03/29 12:06:25;;;;;;;29.85;15.30;;;13.10;98.70;;;;;;5044758;28;20033;-77
2022/03/29 12:08:55;;;;;;;152.32;24.05;;;13.30;98.60;;;;;;5033923;28;20109;-78
2022/03/29 12:11:54;;;;;;;30.05;15.85;;;13.50;98.00;;;;;;5041340;28;20037;-78
2022/03/29 12:14:23;;;;;;;36.22;16.30;;;13.90;97.40;;;;;;5038859;28;20050;-78
2022/03/29 12:16:51;;;;;;;66.75;16.90;;;14.20;96.60;;;;;;5043062;28;20033;-78
2022/03/29 12:19:25;;;;;;;31.83;14.90;;;14.40;97.00;;;;;;5032035;28;20069;-78
2022/03/29 12:21:59;;;;;;;29.02;15.52;;;14.10;96.10;;;;;;5040703;28;20186;-78
2022/03/29 12:24:26;;;;;;;23.88;13.73;;;13.70;96.20;;;;;;5030497;28;20649;-79
2022/03/29 12:26:56;;;;;;;23.73;14.00;;;13.50;96.50;;;;;;5037571;28;20086;-78
2022/03/29 12:29:25;;;;;;;28.13;14.07;;;13.60;95.90;;;;;;5036287;28;20049;-78
2022/03/29 12:31:53;;;;;;;25.13;14.80;;;13.60;96.00;;;;;;5053748;28;20044;-78
2022/03/29 12:34:24;;;;;;;23.08;13.77;;;13.80;96.30;;;;;;5037436;28;20265;-79
2022/03/29 12:36:53;;;;;;;25.20;13.80;;;14.10;95.80;;;;;;5022981;28;20502;-78
2022/03/29 12:39:19;;;;;;;28.63;13.55;;;14.30;95.30;;;;;;5027375;28;20442;-78
2022/03/29 12:41:55;;;;;;;25.77;13.20;;;14.40;95.50;;;;;;5033993;28;20094;-78
2022/03/29 12:44:32;;;;;;;25.23;14.02;;;14.30;95.10;;;;;;5030194;28;20121;-79
2022/03/29 12:46:59;;;;;;;22.63;13.13;;;14.70;95.50;;;;;;5033157;28;20033;-79
2022/03/29 12:49:25;;;;;;;25.25;14.02;;;15.20;95.70;;;;;;5042497;28;20483;-78